• Join FlightAware (Why Join?)
  • Login
  • US Flag 
08:35AM EDT


 

Airport Tracker/Info


-or-


 

Live Flight TrackerFlight Track Log ✈ UCA3596 ✈ 04-Oct-2013 ✈ KBGM - KIAD

Flight Track Log - Related Links

Times and Time Zones

All times are in EDT time to prevent confusion due to time zone crossing. See the UCA3596 flight status page for this flight to view local times or setup timezone preferences in your user account.

Time Position Orientation Groundspeed Altitude Reporting Facility
EDT Latitude Longitude Course Direction KTS MPH feet Rate Location/Type
02:57PM 42.2283 -76.0106 228° Southwest 133 153 2,800  Level New York Center
02:58PM 42.2017 -76.0503 228° Southwest 119 137 3,900 1,260 Climbing New York Center
02:59PM 42.1583 -76.0833 209° Southwest 153 176 5,300 1,380 Climbing New York Center
03:00PM 42.1172 -76.1219 215° Southwest 168 193 6,700 1,320 Climbing New York Center
03:01PM 42.0739 -76.1603 213° Southwest 179 206 8,000 1,380 Climbing New York Center
03:02PM 42.0283 -76.1983 212° Southwest 190 219 9,500 1,380 Climbing New York Center
03:03PM 41.9894 -76.2314 212° Southwest 195 224 10,900 1,320 Climbing New York Center
03:04PM 41.9419 -76.2694 211° Southwest 190 219 12,100 1,020 Climbing New York Center
03:06PM 41.8464 -76.3506 212° Southwest 197 227 14,000 600 Climbing New York Center
03:07PM 41.7942 -76.3964 213° Southwest 211 243 14,000  Level New York Center
03:08PM 41.7381 -76.4417 211° Southwest 246 283 14,000  Level New York Center
03:09PM 41.6750 -76.4944 212° Southwest 252 290 14,000  Level New York Center
03:10PM 41.6164 -76.5422 211° Southwest 252 290 14,000  Level New York Center
03:11PM 41.5578 -76.5928 213° Southwest 252 290 14,000 120 Level New York Center
03:12PM 41.5014 -76.6378 211° Southwest 257 296 14,300 660 Climbing New York Center
03:13PM 41.4494 -76.6803 212° Southwest 245 282 15,400 1,080 Climbing New York Center
03:14PM 41.3928 -76.7306 214° Southwest 233 268 16,500 780 Climbing New York Center
03:15PM 41.3428 -76.7703 211° Southwest 227 261 17,000 240 Climbing New York Center
03:16PM 41.2769 -76.7922 194° South 227 261 17,000  Level New York Center
03:17PM 41.2056 -76.8050 188° South 251 289 17,000  Level New York Center
03:18PM 41.1333 -76.8317 196° South 265 305 17,000  Level New York Center
03:19PM 41.0683 -76.8783 208° Southwest 265 305 17,000  Level New York Center
03:20PM 41.0036 -76.9219 207° Southwest 265 305 17,000  Level New York Center
03:21PM 40.9325 -76.9264 183° South 256 295 17,000  Level New York Center
03:22PM 40.8650 -76.9039 166° South 268 308 17,000  Level New York Center
03:23PM 40.7803 -76.8908 173° South 278 320 17,000  Level New York Center
03:24PM 40.7144 -76.9122 194° South 272 313 17,000  Level New York Center
03:25PM 40.6342 -76.9353 192° South 280 322 17,000  Level New York Center
03:26PM 40.5664 -76.9536 192° South 280 322 17,000  Level New York Center
03:27PM 40.4858 -76.9792 194° South 280 322 17,000  Level New York Center
03:28PM 40.4203 -77.0006 194° South 280 322 17,000 -420 Level New York Center
03:29PM 40.3375 -77.0258 193° South 285 328 16,200 -900 Descending New York Center
03:30PM 40.2675 -77.0467 193° South 285 328 15,300 -1,020 Descending New York Center
03:31PM 40.1828 -77.0744 194° South 285 328 14,200 -1,020 Descending New York Center
03:33PM 40.0167 -77.1167 191° South 276 318 12,200 -1,020 Descending Potomac TRACON
03:34PM 39.9500 -77.1500 201° Southwest 276 318 11,200 -900 Descending Potomac TRACON
03:35PM 39.8833 -77.1833 201° Southwest 280 322 10,500 -600 Descending Potomac TRACON
03:36PM 39.8000 -77.2333 205° Southwest 277 319 10,000 -540 Descending Potomac TRACON
03:37PM 39.7333 -77.2667 201° Southwest 271 312 9,500 -480 Descending Potomac TRACON
03:38PM 39.6833 -77.3000 207° Southwest 271 312 9,100 -420 Descending Potomac TRACON
03:39PM 39.6000 -77.3500 205° Southwest 272 313 8,700 -540 Descending Potomac TRACON
03:40PM 39.5167 -77.3500 180° South 279 321 8,000 -720 Descending Potomac TRACON
03:41PM 39.4500 -77.3667 191° South 275 316 7,400 -840 Descending Potomac TRACON
03:42PM 39.3667 -77.3667 180° South 265 305 6,400 -960 Descending Potomac TRACON
03:43PM 39.3000 -77.3667 180° South 265 305 5,500 -960 Descending Potomac TRACON
03:44PM 39.2333 -77.3667 180° South 259 298 4,600 -720 Descending Potomac TRACON
03:45PM 39.1500 -77.3500 171° South 251 289 4,000 -300 Descending Potomac TRACON
03:46PM 39.0833 -77.3500 180° South 252 290 4,000  Level Potomac TRACON
03:47PM 39.0167 -77.3500 180° South 254 292 4,000  Level Potomac TRACON
03:48PM 38.9500 -77.3500 180° South 252 290 4,000 -60 Level Potomac TRACON
03:49PM 38.8833 -77.3500 180° South 252 290 3,900 -780 Descending Potomac TRACON
03:50PM 38.8167 -77.3833 201° Southwest 241 277 2,500 -1,080 Descending Potomac TRACON
03:51PM 38.8333 -77.4333 293° West 173 199 1,900 -780 Descending Potomac TRACON
03:52PM 38.8833 -77.4333 360° North 155 178 1,100 -840 Descending Potomac TRACON